Weather observations for the past three days for
Buckland, Buckland Airport
Imperial (Metric)
Date Time (akdt) Wind (mph) Vis. (mi.) Weather Sky Cond. Temperature (ºF) Relative Humidity Wind Chill (°F) Heat Index (°F) Pressure Precipitation (in)
Air Dwpt 6 hour altimeter (in) sea level (mb) 1 hr 3 hr 6 hr
Max. Min.
09 05:56 NW 8 10.00 A Few Clouds FEW055 19.9 18 92% 11 29.71 0.0
09 04:56 NW 8 10.00 Fair CLR 19.9 19 96% 11 29.72 0.0
09 03:56 N 10 10.00 Fair CLR 21 19 92% 11 29.73 0.0
09 02:56 NW 10 10.00 Fair CLR 21.9 19.9 92% 12 29.74 0.0
08 23:56 NW 10 10.00 Overcast OVC009 25 21.9 88% 16 29.78 1008.7
08 22:56 NW 12 10.00 Mostly Cloudy BKN011 25 21.9 88% 15 29.81 1009.5
08 21:56 NW 14 10.00 Fair CLR 27 23 32 27 85% 16 29.82 1009.9
08 20:56 NW 16 10.00 Fair CLR 28.9 23 78% 18 29.83 1010.4
08 19:56 NW 15 10.00 Fair CLR 30.9 21.9 69% 21 29.85 1011.1
08 18:56 NW 18 G 23 10.00 Fair CLR 32 21 64% 21 29.87 1011.7
08 17:56 W 16 10.00 Fair CLR 32 21 64% 22 29.9 1012.7
08 16:56 NW 17 10.00 Fair CLR 30.9 21 67% 20 29.93 1013.7
08 15:56 NW 16 10.00 Fair CLR 30 21.9 30.9 19.9 72% 19 29.96 1014.6
08 14:56 W 16 10.00 A Few Clouds FEW013 30 21.9 72% 19 29.98 1015.4
08 13:56 NW 15 10.00 Mostly Cloudy BKN011 28 21.9 78% 17 30.01 1016.4
08 12:56 NW 14 10.00 Overcast OVC009 26.1 21 81% 15 30.03 1017.1
08 11:56 NW 13 10.00 Overcast OVC005 23 21 92% 12 30.05 1017.6
08 10:56 NW 14 10.00 Overcast OVC003 21.9 19.9 92% 10 30.07 1018.3
08 09:56 NW 13 9.00 Overcast OVC003 19.9 19 24.1 19 96% 8 30.08 1018.9
08 08:56 NW 15 7.00 Overcast OVC003 19 18 96% 6 30.09 1019.1
08 07:56 NW 17 7.00 Overcast OVC003 19 17.1 92% 5 30.1 1019.3
08 06:56 NW 12 4.00 Fog/Mist BKN003 19 18 96% 8 30.1 1019.4
08 05:56 NW 8 10.00 Fair CLR 19 17.1 92% 10 30.11 1019.8
08 04:56 NW 9 10.00 Mostly Cloudy BKN060 21.9 19 89% 13 30.11 1019.8
08 03:56 NW 9 10.00 Overcast OVC060 24.1 19.9 28.9 24.1 84% 15 30.12 1020.1
08 02:56 NW 9 10.00 Overcast OVC060 24.1 19.9 84% 15 30.13 1020.4
08 01:56 NW 10 10.00 Overcast OVC060 25 21 85% 16 30.13 1020.6
08 00:56 NW 7 10.00 Overcast OVC060 25 21 85% 18 30.14 1020.6
07 23:56 NW 8 10.00 Partly Cloudy SCT060 25 21 85% 17 30.14 1020.8
07 22:56 NW 10 10.00 Fair CLR 27 21 78% 18 30.14 1020.6
07 21:56 NW 14 10.00 Fair CLR 28.9 21 33.1 28.9 72% 19 30.13 1020.6
07 20:56 NW 13 10.00 A Few Clouds FEW055 30.9 19.9 64% 22 30.13 1020.5
07 19:56 NW 12 9.00 Light Snow BKN034 OVC041 30.9 19.9 64% 22 30.14 1020.7
07 18:56 NW 13 10.00 Mostly Cloudy BKN060 30.9 19.9 64% 22 30.14 1020.8
07 17:56 NW 13 10.00 Partly Cloudy SCT050 30.9 19 61% 22 30.14 1020.6
07 16:56 W 10 10.00 Mostly Cloudy BKN041 30.9 19 61% 23 30.14 1020.7
07 15:56 NW 10 10.00 Mostly Cloudy BKN035 32 19 35.1 24.1 59% 24 30.15 1021.0
07 14:56 NW 8 10.00 Mostly Cloudy BKN031 33.1 18 54% 27 30.15 1021.1
07 13:56 W 10 G 16 10.00 Fair CLR 30.9 19 61% 23 30.15 1021.1
07 12:56 NW 9 10.00 A Few Clouds FEW023 30.9 19 61% 24 30.15 1021.0
07 11:56 NW 8 10.00 Mostly Cloudy BKN017 28 19 69% 21 30.15 1021.0
07 10:56 NW 13 10.00 Partly Cloudy SCT015 26.1 19 75% 16 30.14 1020.9
07 09:56 NW 12 10.00 Overcast OVC011 24.1 19 24.1 21 81% 14 30.14 1020.9
07 08:56 W 14 10.00 Overcast OVC011 23 19 85% 11 30.14 1020.7
07 07:56 W 17 9.00 Light Snow FEW011 SCT065 OVC080 21.9 18 85% 9 30.13 1020.3
07 06:56 W 17 G 24 9.00 Light Snow SCT040 OVC080 21 18 88% 8 30.12 1020.1
07 05:56 W 18 9.00 Light Snow FEW010 OVC040 21 18 88% 7 30.12 1020.1
07 04:56 W 18 10.00 Overcast FEW010 OVC038 21 18 88% 7 30.11 1019.8
07 03:56 W 13 G 22 10.00 Overcast FEW046 OVC095 21 18 23 19.9 88% 10 30.11 1019.8
07 02:56 W 14 10.00 Overcast BKN011 OVC042 21 18 88% 9 30.11 1019.8
07 01:56 W 16 10.00 Overcast OVC011 21 18 88% 8 30.11 1019.7
07 00:56 W 16 G 24 10.00 Overcast SCT011 SCT042 OVC110 21 18 88% 8 30.1 1019.5
06 23:56 W 14 10.00 Overcast OVC042 19.9 17.1 89% 8 30.1 1019.3
06 22:56 NW 21 G 26 10.00 Mostly Cloudy and Breezy BKN042 21.9 18 85% 7 30.08 1018.8
06 21:56 W 21 G 26 10.00 Overcast and Breezy BKN015 OVC042 23 19 26.1 23 85% 9 30.08 1018.9
06 20:56 W 21 G 26 9.00 Light Snow and Breezy BKN015 OVC044 24.1 19 81% 10 30.08 1018.7
06 19:56 W 17 G 24 9.00 Overcast BKN017 BKN030 OVC049 26.1 19 75% 14 30.07 1018.5
06 18:56 W 18 10.00 Overcast BKN017 OVC055 25 18 75% 12 30.07 1018.4
06 17:56 W 21 9.00 Light Snow and Breezy SCT017 OVC055 24.1 17.1 75% 10 30.06 1018.0
06 16:56 W 18 G 24 5.00 Light Snow SCT013 OVC017 24.1 19 81% 11 30.06 1018.1
06 15:56 NW 18 G 23 6.00 Light Snow BKN019 26.1 19.9 26.1 21 78% 14 30.06 1018.0
06 14:56 W 18 G 22 9.00 Light Snow SCT015 26.1 18 71% 14 30.05 1017.8
06 13:56 W 16 9.00 Light Snow BKN017 OVC049 25 19 78% 13 30.06 1017.9
06 12:56 W 18 G 24 9.00 Light Snow OVC049 25 17.1 72% 12 30.04 1017.4
06 11:56 W 16 10.00 Overcast BKN014 OVC047 24.1 17.1 75% 12 30.03 1017.2
06 10:56 W 14 9.00 Light Snow OVC012 21 16 81% 9 30.04 1017.5
06 09:56 W 14 G 21 9.00 Light Snow OVC010 21 17.1 21 19 85% 9 30.03 1017.2
06 08:56 NW 13 9.00 Light Snow OVC008 19.9 17.1 89% 8 30.02 1016.9
06 07:56 W 15 9.00 Light Snow OVC008 19.9 18 92% 7 30.02 1016.7
06 06:56 W 10 9.00 Light Snow BKN010 OVC015 19.9 17.1 89% 9 30.01 1016.4
Date Time (akdt) Wind (mph) Vis. (mi.) Weather Sky Cond. Air Dwpt Max. Min. Relative Humidity Wind Chill (°F) Heat Index (°F) altimeter (in) sea level (mb) 1 hr 3 hr 6 hr
6 hour
Temperature (ºF) Pressure Precipitation (in)